Time;durP1;ratioP1;P1;durP2;ratioP2;P2;SDS_P1;SDS_P2;PMS_P1;PMS_P2;Temp;Humidity;BMP_temperature;BMP_pressure;BME280_temperature;BME280_humidity;BME280_pressure;Samples;Min_cycle;Max_cycle;Signal;HPM_P1;HPM_P2
2023/03/08 00:00:28;;;;;;;8.00;6.40;;;4.60;53.70;;;4.20;54.56;96441.56;5109556;28;20497;-73
2023/03/08 00:02:57;;;;;;;8.20;5.80;;;4.70;53.70;;;3.54;54.25;96348.13;5091112;28;20490;-71
2023/03/08 00:05:24;;;;;;;7.83;6.20;;;4.70;53.70;;;3.17;54.69;96309.66;5110896;27;20470;-74
2023/03/08 00:07:56;;;;;;;10.37;6.97;;;4.70;53.80;;;4.08;54.91;96436.06;5129160;27;20482;-71
2023/03/08 00:10:23;;;;;;;6.07;5.47;;;4.70;53.80;;;4.33;54.42;96477.31;5077712;28;20480;-75
2023/03/08 00:12:51;;;;;;;9.43;6.70;;;4.70;53.80;;;4.31;54.41;96456.09;5087714;28;20491;-71
2023/03/08 00:15:20;;;;;;;9.57;6.27;;;4.70;54.10;;;4.14;54.26;96425.56;5099736;28;20453;-73
2023/03/08 00:17:47;;;;;;;9.97;6.30;;;4.70;53.70;;;4.31;53.81;96440.06;5096746;28;20456;-72
2023/03/08 00:20:17;;;;;;;9.10;6.10;;;4.70;53.70;;;4.41;54.56;96458.31;5108296;27;20898;-73
2023/03/08 00:22:46;;;;;;;8.33;5.77;;;4.70;54.10;;;4.39;53.71;96455.84;5088150;28;20453;-72
2023/03/08 00:25:15;;;;;;;11.70;6.60;;;4.80;53.80;;;4.38;53.73;96458.75;5088256;27;20463;-74
2023/03/08 00:27:48;;;;;;;11.23;6.20;;;4.80;53.50;;;4.46;54.02;96460.34;5074888;28;20525;-74
2023/03/08 00:30:16;;;;;;;8.37;5.63;;;4.80;53.50;;;3.68;53.91;96380.13;5097184;28;20742;-70
2023/03/08 00:32:44;;;;;;;7.60;5.10;;;4.80;53.50;;;4.47;54.30;96460.13;5087931;28;20465;-73
2023/03/08 00:35:12;;;;;;;6.60;5.30;;;4.80;53.60;;;4.37;53.95;96463.25;5095952;28;20474;-70
2023/03/08 00:37:41;;;;;;;8.33;5.90;;;4.80;53.60;;;4.43;53.68;96460.78;5092295;27;20469;-72
2023/03/08 00:40:10;;;;;;;9.17;5.90;;;4.80;53.60;;;4.30;54.54;96461.66;5090431;27;20441;-71
2023/03/08 00:42:38;;;;;;;7.63;4.90;;;4.80;53.50;;;4.23;53.64;96446.47;5095111;28;20850;-75
2023/03/08 00:45:07;;;;;;;8.23;5.40;;;4.80;53.40;;;4.38;54.07;96466.78;5094603;27;20665;-71
2023/03/08 00:47:34;;;;;;;9.20;6.20;;;4.80;53.30;;;4.26;53.83;96455.94;5106805;27;20962;-73
2023/03/08 00:50:02;;;;;;;8.80;6.00;;;4.80;53.30;;;4.30;53.90;96461.66;5074703;28;20467;-72
2023/03/08 00:52:29;;;;;;;8.20;5.70;;;4.80;53.50;;;3.95;53.51;96390.72;5075840;28;20511;-73
2023/03/08 00:54:58;;;;;;;8.47;6.67;;;4.90;53.30;;;4.31;53.50;96464.13;5100569;27;20506;-73
2023/03/08 00:57:25;;;;;;;7.87;5.57;;;4.90;53.40;;;4.38;54.13;96464.09;5085046;28;20461;-72
2023/03/08 00:59:53;;;;;;;8.97;6.43;;;4.80;53.50;;;4.37;54.17;96451.75;5094331;28;20451;-71
2023/03/08 01:02:20;;;;;;;6.90;5.70;;;4.80;53.80;;;3.93;54.38;96398.94;5090918;28;20888;-73
2023/03/08 01:04:47;;;;;;;8.20;5.83;;;4.80;53.60;;;4.29;53.85;96439.47;5083782;28;20504;-73
2023/03/08 01:07:15;;;;;;;7.50;6.00;;;4.90;53.50;;;4.48;53.13;96450.25;5080936;28;20457;-73
2023/03/08 01:09:42;;;;;;;8.77;6.13;;;4.90;53.80;;;4.45;53.94;96454.16;5094517;28;20452;-73
2023/03/08 01:12:10;;;;;;;11.00;6.10;;;4.80;53.40;;;4.46;53.33;96447.78;5091514;28;20573;-73
2023/03/08 01:14:38;;;;;;;7.40;5.40;;;4.90;53.50;;;4.46;53.30;96455.81;5073398;28;20500;-76
2023/03/08 01:17:05;;;;;;;8.30;6.00;;;4.90;53.50;;;4.37;53.42;96467.81;5075155;28;21267;-72
2023/03/08 01:19:32;;;;;;;8.07;5.97;;;4.90;53.40;;;4.16;54.21;96410.13;5086944;28;20451;-72
2023/03/08 01:22:00;;;;;;;8.30;6.27;;;4.90;53.40;;;3.97;53.86;96399.31;5090834;27;20466;-74
2023/03/08 01:24:27;;;;;;;7.90;6.70;;;4.90;53.50;;;3.66;53.27;96334.13;5088283;28;20450;-72
2023/03/08 01:26:57;;;;;;;9.10;6.53;;;4.90;53.30;;;4.46;53.57;96469.19;5097623;28;20456;-73
2023/03/08 01:29:26;;;;;;;7.57;5.20;;;4.90;53.20;;;4.45;53.18;96442.66;5100521;27;20457;-74
2023/03/08 01:31:53;;;;;;;7.90;6.27;;;4.90;53.20;;;4.48;53.62;96460.97;5117999;27;20460;-73
2023/03/08 01:34:21;;;;;;;7.20;6.10;;;4.90;53.20;;;4.49;53.87;96471.44;5113130;27;20449;-74
2023/03/08 01:36:48;;;;;;;8.27;5.97;;;4.90;53.30;;;4.32;53.37;96446.22;5091155;28;20456;-71
2023/03/08 01:39:16;;;;;;;9.50;5.90;;;4.90;53.20;;;4.46;53.53;96466.50;5085929;28;20529;-70
2023/03/08 01:41:43;;;;;;;6.50;5.67;;;4.90;53.20;;;4.52;54.06;96476.38;5099088;28;20448;-71
2023/03/08 01:44:16;;;;;;;11.03;6.00;;;4.90;53.30;;;4.27;54.25;96444.22;5121108;27;20957;-74
2023/03/08 01:46:45;;;;;;;8.43;6.60;;;4.90;53.40;;;4.17;53.48;96419.78;5085237;28;20462;-71
2023/03/08 01:49:17;;;;;;;10.43;6.00;;;4.90;53.40;;;4.25;53.84;96444.41;5091867;28;20449;-71
2023/03/08 01:51:51;;;;;;;8.33;6.23;;;4.90;53.30;;;4.36;53.86;96440.22;5082652;28;20459;-71
2023/03/08 01:54:24;;;;;;;8.90;6.93;;;4.90;53.30;;;4.51;53.43;96447.16;5079131;28;20449;-70
2023/03/08 01:56:56;;;;;;;6.47;5.43;;;4.90;53.30;;;4.19;53.18;96407.84;5084247;28;20814;-71
2023/03/08 01:59:24;;;;;;;8.47;5.87;;;4.90;53.30;;;4.22;53.80;96439.50;5099160;28;21112;-71
2023/03/08 02:01:58;;;;;;;8.40;5.77;;;4.90;53.20;;;4.37;53.40;96446.41;5096067;28;20496;-72
2023/03/08 02:04:56;;;;;;;8.13;5.93;;;4.90;53.20;;;4.32;53.47;96428.34;5070572;28;20453;-71
2023/03/08 02:07:25;;;;;;;8.80;6.47;;;4.90;53.20;;;4.29;53.06;96434.13;5095484;28;20960;-71
2023/03/08 02:09:54;;;;;;;7.70;5.97;;;4.90;53.00;;;4.30;53.23;96445.63;5102967;28;20456;-71
2023/03/08 02:12:22;;;;;;;7.13;5.33;;;4.90;53.00;;;4.42;53.63;96443.09;5111685;28;20493;-71
2023/03/08 02:14:50;;;;;;;7.00;4.97;;;4.90;53.00;;;4.48;52.83;96453.75;5128076;27;20447;-70
2023/03/08 02:17:19;;;;;;;6.50;5.20;;;4.90;53.00;;;4.32;53.48;96438.19;5109693;27;20541;-69
2023/03/08 02:19:53;;;;;;;10.50;5.47;;;4.90;52.90;;;4.16;53.26;96386.88;5084661;28;20448;-70
2023/03/08 02:22:20;;;;;;;7.10;5.80;;;4.90;53.00;;;4.10;53.29;96385.91;5088239;28;20442;-72
2023/03/08 02:24:49;;;;;;;6.67;5.47;;;4.80;52.90;;;3.25;53.29;96243.50;5105498;27;20465;-71
2023/03/08 02:27:23;;;;;;;7.87;5.00;;;4.80;52.90;;;4.28;52.88;96404.91;5078314;28;20866;-73
2023/03/08 02:29:59;;;;;;;7.90;5.50;;;4.80;52.80;;;4.45;52.81;96432.78;5075136;28;20492;-72
2023/03/08 02:32:27;;;;;;;8.60;5.63;;;4.80;52.60;;;4.33;52.67;96419.28;5075245;28;20827;-73
2023/03/08 02:34:55;;;;;;;8.33;5.67;;;4.80;52.60;;;3.85;52.97;96382.31;5106847;27;20821;-71
2023/03/08 02:37:22;;;;;;;6.70;5.23;;;4.70;52.80;;;4.16;53.03;96386.06;5072533;28;20506;-71
2023/03/08 02:39:51;;;;;;;7.47;5.57;;;4.80;52.90;;;4.33;52.31;96413.94;5082234;28;21027;-73
2023/03/08 02:42:33;;;;;;;8.70;5.40;;;4.70;52.80;;;4.03;53.16;96389.63;5072954;28;20461;-73
2023/03/08 02:45:00;;;;;;;8.13;5.60;;;4.70;52.70;;;4.06;53.28;96408.72;5095133;27;20508;-74
2023/03/08 02:47:27;;;;;;;6.00;5.13;;;4.70;52.60;;;4.22;53.36;96444.84;5086291;28;20460;-71
2023/03/08 02:49:55;;;;;;;9.60;6.23;;;4.70;52.80;;;2.96;53.07;96215.50;5082350;28;20486;-72
2023/03/08 02:52:22;;;;;;;9.17;5.97;;;4.70;52.80;;;3.65;53.09;96325.28;5070888;28;20823;-71
2023/03/08 02:54:52;;;;;;;6.30;5.10;;;4.60;52.70;;;3.93;53.64;96396.25;5071899;28;20606;-71
2023/03/08 02:57:21;;;;;;;7.77;5.70;;;4.60;52.70;;;4.15;52.76;96428.00;5094380;28;20529;-70
2023/03/08 02:59:49;;;;;;;7.17;5.33;;;4.60;52.60;;;4.03;53.27;96397.66;5088519;28;20479;-70
2023/03/08 03:02:18;;;;;;;8.30;5.90;;;4.60;52.60;;;4.09;53.02;96423.53;5104187;28;20451;-71
2023/03/08 03:04:46;;;;;;;7.30;5.90;;;4.60;52.80;;;3.71;53.80;96400.22;5106063;28;20482;-70
2023/03/08 03:07:13;;;;;;;7.90;5.70;;;4.50;52.70;;;3.91;54.27;96430.38;5112311;28;20550;-71
2023/03/08 03:09:41;;;;;;;9.70;6.07;;;4.40;52.70;;;3.86;53.57;96390.09;5093320;28;20447;-73
2023/03/08 03:12:09;;;;;;;6.90;5.37;;;4.50;52.70;;;3.68;53.39;96386.28;5097049;28;20462;-71
2023/03/08 03:14:37;;;;;;;6.83;5.10;;;4.50;52.70;;;3.78;53.85;96425.09;5132051;27;20471;-72
2023/03/08 03:17:04;;;;;;;11.03;5.50;;;4.40;52.60;;;3.36;53.54;96348.81;5089979;28;20972;-71
2023/03/08 03:19:31;;;;;;;8.70;5.37;;;4.30;52.60;;;3.76;53.68;96419.94;5091725;28;20936;-71
2023/03/08 03:21:59;;;;;;;7.93;5.67;;;4.30;52.70;;;3.59;54.63;96419.59;5087706;28;20559;-71
2023/03/08 03:24:26;;;;;;;9.13;5.93;;;4.20;52.80;;;3.39;54.56;96388.41;5095620;27;20459;-73
2023/03/08 03:26:55;;;;;;;7.87;5.57;;;4.10;52.80;;;3.66;54.40;96436.41;5114848;27;20453;-72
2023/03/08 03:29:24;;;;;;;8.00;5.67;;;4.10;52.90;;;3.65;54.48;96408.06;5087345;28;20457;-70
2023/03/08 03:31:51;;;;;;;7.90;5.77;;;4.10;52.90;;;3.58;54.75;96417.97;5077728;28;21263;-72
2023/03/08 03:34:19;;;;;;;9.57;7.00;;;4.10;52.90;;;3.42;54.76;96413.09;5081448;28;20472;-71
2023/03/08 03:36:46;;;;;;;8.00;6.30;;;4.00;52.90;;;3.47;54.55;96405.25;5075627;28;20457;-73
2023/03/08 03:39:13;;;;;;;10.67;6.60;;;3.90;53.00;;;3.46;54.91;96406.28;5104176;27;20924;-74
2023/03/08 03:41:41;;;;;;;8.70;6.10;;;3.90;53.20;;;3.31;55.27;96396.66;5099730;27;20823;-72
2023/03/08 03:44:08;;;;;;;7.40;6.00;;;3.80;53.30;;;3.21;55.48;96396.28;5077576;28;20452;-72
2023/03/08 03:46:37;;;;;;;8.37;5.97;;;3.70;53.30;;;3.11;55.29;96404.72;5089801;28;20555;-73
2023/03/08 03:49:05;;;;;;;11.27;6.43;;;3.60;53.30;;;3.11;55.74;96412.72;5087965;28;20737;-70
2023/03/08 03:51:34;;;;;;;8.10;5.97;;;3.60;53.50;;;2.83;56.15;96379.91;5078260;28;20469;-71
2023/03/08 03:54:01;;;;;;;9.07;6.43;;;3.50;53.60;;;2.83;56.29;96403.91;5089976;28;20473;-72
2023/03/08 03:56:29;;;;;;;11.03;6.70;;;3.40;53.80;;;2.79;56.80;96404.53;5095479;27;20440;-71
2023/03/08 03:58:56;;;;;;;8.03;6.43;;;3.30;53.90;;;2.18;56.98;96339.69;5069577;28;20499;-71
2023/03/08 04:01:26;;;;;;;8.17;6.10;;;3.20;54.20;;;2.61;57.03;96410.47;5074093;28;20505;-72
2023/03/08 04:03:58;;;;;;;10.17;6.60;;;3.20;54.40;;;2.44;57.45;96396.72;5072536;28;20591;-72
2023/03/08 04:06:29;;;;;;;11.70;6.00;;;3.10;54.40;;;2.55;57.68;96407.59;5076450;28;20549;-71
2023/03/08 04:08:59;;;;;;;8.50;6.20;;;3.10;54.70;;;2.58;57.43;96402.88;5080185;28;20945;-71
2023/03/08 04:11:28;;;;;;;10.53;7.17;;;3.00;54.80;;;2.32;57.71;96373.31;5080551;28;20458;-72
2023/03/08 04:13:56;;;;;;;10.23;6.97;;;3.00;55.00;;;2.58;57.50;96393.03;5077402;28;20473;-72
2023/03/08 04:16:25;;;;;;;11.30;7.17;;;3.00;55.10;;;2.47;57.99;96399.78;5108074;27;20448;-70
2023/03/08 04:18:55;;;;;;;8.20;6.50;;;3.00;55.20;;;2.22;57.92;96387.06;5073094;28;20448;-71
2023/03/08 04:21:24;;;;;;;11.37;7.70;;;3.00;55.20;;;2.39;57.96;96394.66;5079861;28;20465;-72
2023/03/08 04:23:52;;;;;;;12.70;7.30;;;3.00;55.30;;;2.68;57.51;96413.97;5086967;28;20544;-71
2023/03/08 04:26:20;;;;;;;8.83;7.10;;;3.10;55.20;;;2.54;57.76;96402.47;5074862;28;20483;-71
2023/03/08 04:28:49;;;;;;;11.50;7.70;;;3.10;55.20;;;2.74;57.50;96401.66;5077683;28;20462;-70
2023/03/08 04:31:18;;;;;;;10.40;8.07;;;3.10;55.20;;;2.55;57.93;96396.94;5087815;28;21195;-71
2023/03/08 04:33:47;;;;;;;11.43;7.80;;;3.10;55.20;;;2.51;57.79;96384.22;5074506;28;20483;-69
2023/03/08 04:36:18;;;;;;;9.40;7.00;;;3.10;55.30;;;2.41;57.91;96372.09;5065600;28;20457;-72
2023/03/08 04:38:46;;;;;;;9.80;7.37;;;3.10;55.20;;;2.44;57.80;96365.53;5085621;28;20452;-72
2023/03/08 04:41:14;;;;;;;11.73;7.77;;;3.10;55.30;;;2.58;57.49;96381.53;5083673;28;20480;-72
2023/03/08 04:43:46;;;;;;;10.17;7.20;;;3.10;55.40;;;2.38;57.74;96319.19;5101170;27;20575;-73
2023/03/08 04:46:14;;;;;;;8.63;6.77;;;3.10;55.40;;;1.35;57.54;96160.53;5089546;27;20894;-73
2023/03/08 04:48:42;;;;;;;11.90;7.20;;;3.10;55.80;;;2.21;57.57;96323.28;5070681;28;20471;-73
2023/03/08 04:51:12;;;;;;;9.40;7.60;;;3.00;55.40;;;2.59;57.94;96359.19;5071523;28;20466;-72
2023/03/08 04:53:50;;;;;;;9.50;6.73;;;3.00;55.50;;;2.46;58.40;96358.16;5073769;28;20477;-72
2023/03/08 04:57:03;;;;;;;13.97;8.90;;;3.10;55.70;;;2.16;57.61;96277.78;5094091;28;20507;-71
2023/03/08 04:59:32;;;;;;;12.20;8.30;;;3.10;55.70;;;2.64;57.64;96362.88;5079865;28;20485;-72
2023/03/08 05:01:59;;;;;;;16.07;9.50;;;3.00;55.80;;;2.66;58.18;96352.03;5097847;28;20467;-72
2023/03/08 05:04:27;;;;;;;10.47;8.23;;;3.00;56.00;;;2.72;58.10;96361.84;5086492;28;21203;-71
2023/03/08 05:06:55;;;;;;;12.70;8.27;;;3.00;56.00;;;2.32;58.06;96303.19;5099153;28;20483;-72
2023/03/08 05:12:06;;;;;;;13.30;8.60;;;3.10;56.20;;;2.77;57.96;96358.56;5069393;28;20501;-75
2023/03/08 05:14:34;;;;;;;13.57;8.67;;;3.10;56.10;;;2.78;58.05;96345.00;5080862;28;20481;-72
2023/03/08 05:17:04;;;;;;;13.87;9.47;;;3.10;56.10;;;2.44;57.87;96290.91;5088355;28;20452;-72
2023/03/08 05:19:32;;;;;;;11.20;8.27;;;3.10;56.20;;;2.53;58.10;96305.66;5078904;28;20492;-71
2023/03/08 05:21:59;;;;;;;11.30;8.03;;;3.20;56.20;;;2.51;57.68;96297.06;5091222;28;20557;-74
2023/03/08 05:24:28;;;;;;;13.20;8.20;;;3.10;56.00;;;2.77;58.00;96327.38;5098012;28;20448;-71
2023/03/08 05:26:57;;;;;;;11.20;9.30;;;3.10;56.20;;;2.42;58.40;96279.63;5104336;28;20467;-73
2023/03/08 05:29:24;;;;;;;10.73;8.37;;;3.10;56.20;;;2.62;57.97;96286.78;5080801;28;20457;-72
2023/03/08 05:31:52;;;;;;;12.73;8.00;;;3.10;56.20;;;2.44;57.73;96264.25;5074058;28;20818;-71
2023/03/08 05:34:19;;;;;;;11.87;8.80;;;3.10;56.40;;;2.81;57.87;96327.78;5085628;28;20477;-72
2023/03/08 05:36:46;;;;;;;12.03;8.00;;;3.10;56.10;;;2.21;57.95;96259.34;5082340;28;21026;-72
2023/03/08 05:39:14;;;;;;;13.43;8.37;;;3.10;56.20;;;2.77;57.77;96327.38;5099772;27;20801;-73
2023/03/08 05:41:42;;;;;;;11.60;8.80;;;3.20;56.20;;;2.75;57.95;96324.09;5096155;28;20472;-71
2023/03/08 05:44:09;;;;;;;9.90;7.90;;;3.20;56.20;;;2.13;57.83;96207.06;5094137;27;20932;-71
2023/03/08 05:46:37;;;;;;;12.70;8.77;;;3.20;56.20;;;2.86;57.92;96317.31;5079605;28;20452;-72
2023/03/08 05:49:05;;;;;;;12.30;8.77;;;3.20;56.20;;;2.92;57.04;96315.66;5092161;28;20467;-72
2023/03/08 05:51:33;;;;;;;11.03;7.70;;;3.30;56.10;;;2.98;57.48;96317.50;5088423;28;20461;-73
2023/03/08 05:54:01;;;;;;;14.67;9.50;;;3.30;56.10;;;2.91;57.38;96322.84;5083440;28;20471;-72
2023/03/08 05:56:29;;;;;;;13.00;9.03;;;3.30;56.00;;;3.00;57.15;96325.28;5083706;28;20583;-74
2023/03/08 05:58:57;;;;;;;12.50;8.20;;;3.40;56.00;;;2.67;57.14;96263.00;5086522;28;20460;-75
2023/03/08 06:01:29;;;;;;;15.27;10.60;;;3.40;55.90;;;3.01;57.12;96321.59;5122671;27;20446;-75
2023/03/08 06:03:58;;;;;;;9.87;7.60;;;3.40;55.80;;;3.03;57.27;96324.84;5088783;27;20464;-74
2023/03/08 06:06:27;;;;;;;16.40;8.67;;;3.50;55.70;;;3.01;56.71;96327.75;5108268;27;20500;-74
2023/03/08 06:08:55;;;;;;;12.07;8.63;;;3.50;55.70;;;3.06;56.61;96327.13;5094668;28;20446;-75
2023/03/08 06:11:23;;;;;;;16.67;9.57;;;3.50;55.70;;;3.29;56.46;96328.50;5088599;28;20508;-71
2023/03/08 06:13:53;;;;;;;19.40;9.40;;;3.60;55.80;;;3.25;56.80;96333.44;5074944;28;20463;-71
2023/03/08 06:16:21;;;;;;;11.93;8.60;;;3.60;55.70;;;3.28;56.27;96343.72;5072765;28;20793;-75
2023/03/08 06:18:49;;;;;;;13.53;8.50;;;3.60;55.60;;;3.25;56.65;96338.75;5074521;28;20529;-73
2023/03/08 06:21:18;;;;;;;13.83;8.40;;;3.70;55.70;;;3.42;56.56;96343.66;5111592;27;20861;-72
2023/03/08 06:23:47;;;;;;;10.60;8.40;;;3.70;55.80;;;3.51;56.03;96353.06;5101355;28;20613;-74
2023/03/08 06:26:16;;;;;;;11.50;7.63;;;3.80;55.50;;;3.50;56.21;96340.75;5067064;28;21315;-73
2023/03/08 06:28:43;;;;;;;15.60;8.80;;;3.80;55.50;;;3.53;55.97;96342.97;5087527;28;20450;-72
2023/03/08 06:31:13;;;;;;;13.90;9.93;;;3.90;55.20;;;3.40;56.66;96336.66;5080909;28;20448;-71
2023/03/08 06:33:42;;;;;;;15.57;9.33;;;3.80;55.20;;;3.56;56.80;96333.75;5073180;28;20475;-75
2023/03/08 06:36:14;;;;;;;13.40;8.57;;;3.90;55.90;;;3.47;55.81;96314.47;5072075;28;20456;-73
2023/03/08 06:38:41;;;;;;;13.27;9.23;;;3.90;55.30;;;3.74;55.78;96320.50;5089100;28;20462;-73
2023/03/08 06:41:10;;;;;;;14.60;8.47;;;4.00;55.50;;;3.64;56.01;96323.63;5081645;28;20498;-71
2023/03/08 06:43:38;;;;;;;14.47;8.07;;;4.00;55.10;;;3.78;55.51;96320.91;5073949;28;20466;-75
2023/03/08 06:46:06;;;;;;;18.70;10.27;;;4.10;55.10;;;3.65;55.33;96333.28;5088258;28;21082;-74
2023/03/08 06:48:34;;;;;;;16.50;10.00;;;4.10;55.00;;;3.60;55.33;96329.59;5091168;28;20984;-71
2023/03/08 06:51:03;;;;;;;9.83;7.73;;;4.00;55.00;;;3.71;55.17;96310.25;5072706;28;20537;-75
2023/03/08 06:53:30;;;;;;;12.47;8.33;;;4.10;55.10;;;3.65;55.44;96311.91;5094326;28;20529;-71
2023/03/08 06:55:57;;;;;;;11.73;8.63;;;4.10;54.90;;;3.60;55.07;96330.44;5085066;28;20465;-71
2023/03/08 06:58:25;;;;;;;10.30;7.57;;;4.10;54.90;;;3.58;55.66;96329.84;5087873;28;20460;-76
2023/03/08 07:00:54;;;;;;;12.87;7.50;;;4.00;54.70;;;3.70;55.64;96332.66;5079911;28;20496;-74
2023/03/08 07:03:21;;;;;;;15.83;8.63;;;4.10;54.70;;;3.66;54.98;96321.56;5095140;28;20483;-74
2023/03/08 07:05:49;;;;;;;13.33;9.00;;;4.10;54.60;;;3.87;54.87;96324.13;5082116;28;20573;-72
2023/03/08 07:08:17;;;;;;;14.30;8.40;;;4.10;54.50;;;3.99;55.28;96326.94;5085807;28;20459;-71
2023/03/08 07:10:44;;;;;;;13.10;7.67;;;4.20;54.80;;;3.76;54.72;96322.97;5087288;28;20530;-70
2023/03/08 07:13:11;;;;;;;14.43;8.63;;;4.20;54.40;;;3.81;54.65;96325.81;5099258;28;20444;-70
2023/03/08 07:15:40;;;;;;;13.47;7.80;;;4.20;54.30;;;3.95;54.16;96319.34;5096444;28;20499;-70
2023/03/08 07:18:07;;;;;;;10.20;7.07;;;4.20;54.10;;;4.01;54.29;96324.88;5109789;27;20468;-69
2023/03/08 07:20:35;;;;;;;11.30;8.23;;;4.30;54.00;;;4.24;53.97;96318.97;5103551;28;20928;-69
2023/03/08 07:23:02;;;;;;;12.87;8.30;;;4.40;54.50;;;3.96;53.41;96322.88;5091200;27;20451;-71
2023/03/08 07:25:30;;;;;;;12.17;8.17;;;4.40;53.80;;;4.22;53.62;96331.72;5079581;28;20451;-70
2023/03/08 07:27:59;;;;;;;13.43;8.53;;;4.40;53.90;;;4.03;53.48;96314.81;5085802;28;20526;-72
2023/03/08 07:30:27;;;;;;;14.90;8.23;;;4.40;53.70;;;4.09;53.08;96311.25;5076408;28;20471;-72
2023/03/08 07:32:54;;;;;;;9.57;7.50;;;4.50;53.70;;;4.38;52.69;96309.00;5082530;28;20532;-72
2023/03/08 07:35:21;;;;;;;13.43;7.63;;;4.60;53.60;;;4.34;52.58;96307.81;5106379;28;20448;-71
2023/03/08 07:37:49;;;;;;;16.40;8.50;;;4.60;53.60;;;4.25;53.59;96318.75;5103292;28;20448;-70
2023/03/08 07:40:18;;;;;;;10.03;7.10;;;4.60;53.80;;;4.11;53.54;96319.88;5111780;28;20456;-71
2023/03/08 07:42:46;;;;;;;9.60;7.87;;;4.50;53.90;;;3.91;54.21;96323.50;5094514;28;20479;-76
2023/03/08 07:45:14;;;;;;;12.60;8.57;;;4.50;54.00;;;3.82;54.65;96312.25;5081121;28;20599;-70
2023/03/08 07:47:42;;;;;;;9.47;7.73;;;4.30;54.10;;;3.76;55.50;96306.94;5078505;28;20462;-71
2023/03/08 07:50:11;;;;;;;9.97;7.33;;;4.30;54.40;;;3.74;54.93;96311.69;5104898;27;20480;-71
2023/03/08 07:52:38;;;;;;;14.27;8.13;;;4.30;54.30;;;3.61;55.29;96301.88;5083122;28;20455;-72
2023/03/08 07:55:07;;;;;;;12.87;7.57;;;4.10;54.30;;;3.71;55.16;96301.41;5099439;27;20468;-72
2023/03/08 07:57:35;;;;;;;9.97;7.80;;;4.20;54.70;;;4.07;54.67;96308.00;5082147;28;20456;-75
2023/03/08 08:00:07;;;;;;;15.83;8.40;;;4.30;55.20;;;4.06;55.21;96317.03;5076053;28;20459;-72
2023/03/08 08:02:34;;;;;;;12.77;7.73;;;4.40;54.70;;;4.07;55.28;96318.69;5086394;28;20455;-72
2023/03/08 08:05:01;;;;;;;14.10;7.63;;;4.40;54.70;;;4.20;55.62;96321.25;5081243;28;20446;-72
2023/03/08 08:07:28;;;;;;;14.87;8.40;;;4.50;55.30;;;4.11;56.35;96319.88;5087077;28;20518;-72
2023/03/08 08:09:56;;;;;;;12.50;7.77;;;4.50;56.10;;;4.28;56.46;96314.00;5118713;27;20461;-71
2023/03/08 08:12:23;;;;;;;13.20;8.20;;;4.50;56.40;;;4.25;57.34;96316.06;5085830;28;20515;-72
2023/03/08 08:14:51;;;;;;;12.77;8.13;;;4.50;57.00;;;3.92;59.93;96310.94;5070602;28;20473;-69
2023/03/08 08:17:20;;;;;;;12.40;7.80;;;4.40;58.60;;;3.79;62.11;96317.19;5075518;28;20552;-72
2023/03/08 08:19:48;;;;;;;13.07;7.63;;;4.30;60.40;;;4.08;60.73;96309.63;5119595;27;20863;-72
2023/03/08 08:22:15;;;;;;;13.00;8.43;;;4.30;61.40;;;4.13;61.04;96311.66;5085922;28;20475;-70
2023/03/08 08:24:43;;;;;;;13.10;8.97;;;4.30;61.40;;;3.59;62.24;96302.09;5116979;27;20474;-72
2023/03/08 08:27:10;;;;;;;13.83;8.47;;;4.20;61.30;;;3.57;63.33;96304.16;5080743;28;20963;-71
2023/03/08 08:29:38;;;;;;;17.40;9.40;;;4.10;62.50;;;3.63;64.41;96295.28;5081539;28;21225;-73
2023/03/08 08:32:06;;;;;;;15.70;9.17;;;4.00;64.30;;;3.39;66.13;96283.50;5078134;28;20571;-73
2023/03/08 08:34:35;;;;;;;16.00;9.03;;;3.80;66.80;;;3.35;66.85;96267.06;5071624;28;20509;-74
2023/03/08 08:37:02;;;;;;;13.93;9.67;;;3.80;69.20;;;3.04;68.79;96271.28;5086601;28;20455;-70
2023/03/08 08:39:29;;;;;;;12.63;8.13;;;3.70;71.40;;;3.09;69.72;96271.47;5072463;28;20583;-72
2023/03/08 08:41:56;;;;;;;17.00;9.30;;;3.60;73.20;;;3.26;69.78;96260.31;5084246;28;20571;-73
2023/03/08 08:44:23;;;;;;;15.23;9.67;;;3.70;73.80;;;3.17;70.28;96242.94;5073121;28;20490;-72
2023/03/08 08:46:50;;;;;;;14.73;9.43;;;3.70;74.70;;;3.01;71.86;96252.22;5075094;28;20489;-72
2023/03/08 08:49:17;;;;;;;15.93;9.50;;;3.50;75.60;;;3.29;70.68;96243.91;5072561;28;20505;-72
2023/03/08 08:51:46;;;;;;;12.70;9.50;;;3.70;76.10;;;3.05;72.07;96242.78;5084408;28;20604;-75
2023/03/08 08:54:13;;;;;;;15.97;9.53;;;3.60;77.00;;;3.26;71.13;96233.63;5081613;28;20460;-73
2023/03/08 08:56:41;;;;;;;18.90;10.00;;;3.60;77.30;;;3.25;72.26;96227.47;5117156;27;20499;-72
2023/03/08 08:59:11;;;;;;;15.80;9.13;;;3.70;78.00;;;3.57;70.75;96213.38;5096510;28;20448;-73
2023/03/08 09:01:42;;;;;;;14.63;9.40;;;3.80;78.30;;;3.43;71.46;96190.44;5081175;28;20921;-71
2023/03/08 09:04:11;;;;;;;15.77;10.30;;;3.80;78.30;;;3.21;72.19;96198.75;5077028;28;20550;-72
2023/03/08 09:06:38;;;;;;;15.50;9.80;;;3.80;78.60;;;3.25;74.26;96195.44;5107312;27;20513;-72
2023/03/08 09:09:07;;;;;;;18.10;11.57;;;3.70;80.70;;;3.71;72.92;96191.88;5083047;28;20545;-73
2023/03/08 09:11:35;;;;;;;14.47;10.97;;;3.90;81.20;;;3.58;72.65;96185.63;5096111;27;21114;-74
2023/03/08 09:14:02;;;;;;;16.33;11.90;;;4.10;80.20;;;3.58;73.08;96174.09;5117197;27;20463;-73
2023/03/08 09:16:31;;;;;;;15.13;10.83;;;4.00;80.70;;;4.13;71.70;96178.00;5074679;28;20509;-71
2023/03/08 09:19:00;;;;;;;15.90;11.00;;;4.30;80.60;;;4.19;71.40;96161.91;5075788;28;20473;-73
2023/03/08 09:21:29;;;;;;;19.57;12.43;;;4.50;80.00;;;4.08;70.70;96159.94;5079493;28;20450;-74
2023/03/08 09:23:59;;;;;;;18.67;12.70;;;4.50;79.80;;;3.71;71.57;96149.13;5121041;27;20889;-70
2023/03/08 09:26:30;;;;;;;17.47;12.47;;;4.30;78.80;;;3.67;72.66;96146.91;5082655;28;21035;-78
2023/03/08 09:29:03;;;;;;;19.30;12.37;;;4.10;79.80;;;3.58;72.97;96134.88;5104539;27;20483;-72
2023/03/08 09:31:31;;;;;;;16.47;12.03;;;4.00;80.60;;;3.33;74.59;96124.97;5084172;28;20497;-72
2023/03/08 09:33:58;;;;;;;18.70;12.13;;;3.90;81.70;;;3.34;75.39;96123.94;5088338;28;20514;-74
2023/03/08 09:36:28;;;;;;;18.77;12.80;;;3.80;84.40;;;3.32;75.65;96118.00;5090010;28;20479;-75
2023/03/08 09:38:56;;;;;;;18.33;13.80;;;3.70;85.30;;;2.89;77.17;96111.50;5092144;28;20531;-70
2023/03/08 09:41:46;;;;;;;21.00;13.27;;;3.50;86.60;;;3.04;77.96;96108.53;5081019;28;20444;-75
2023/03/08 09:44:33;;;;;;;19.97;13.60;;;3.40;89.50;;;3.32;76.67;96099.31;5084376;28;20464;-71
2023/03/08 09:47:06;;;;;;;19.20;14.60;;;3.60;89.80;;;3.03;78.16;96079.38;5080996;28;20465;-71
2023/03/08 09:49:35;;;;;;;21.60;14.57;;;3.50;90.10;;;3.22;78.95;96072.28;5084900;28;20460;-71
2023/03/08 09:52:10;;;;;;;24.43;14.90;;;3.50;91.20;;;3.08;78.79;96075.03;5086215;28;20548;-71
2023/03/08 09:54:39;;;;;;;21.97;15.33;;;3.50;90.90;;;2.92;80.01;96064.88;5083498;28;20505;-69
2023/03/08 09:57:16;;;;;;;22.47;15.57;;;3.40;92.10;;;2.87;80.87;96059.38;5091157;28;21016;-73
2023/03/08 09:59:53;;;;;;;24.87;16.90;;;3.20;92.90;;;2.61;82.24;96053.16;5066460;28;20584;-71
2023/03/08 10:02:31;;;;;;;25.50;16.17;;;3.20;93.20;;;2.40;82.73;96042.56;5082301;28;20439;-72
2023/03/08 10:05:07;;;;;;;24.30;15.80;;;3.10;94.30;;;2.49;83.71;96043.16;5073283;28;20463;-72
2023/03/08 10:07:48;;;;;;;26.00;17.07;;;3.00;95.90;;;2.53;83.64;96025.72;5084420;28;20469;-71
2023/03/08 10:10:35;;;;;;;26.77;17.67;;;3.00;95.80;;;2.78;83.22;96014.28;5074104;28;20513;-74
2023/03/08 10:13:30;;;;;;;26.23;16.63;;;3.10;97.40;;;2.13;82.82;95927.31;5091047;28;21402;-72
2023/03/08 10:16:12;;;;;;;24.07;16.73;;;3.10;95.30;;;2.49;83.65;95999.69;5085084;28;20967;-69
2023/03/08 10:18:45;;;;;;;21.80;15.40;;;3.10;95.60;;;3.13;83.17;96004.22;5086909;28;20454;-72
2023/03/08 10:21:17;;;;;;;25.90;17.20;;;3.30;97.30;;;2.60;82.83;95992.84;5107188;27;20489;-71
2023/03/08 10:23:47;;;;;;;33.00;17.70;;;3.20;94.70;;;2.15;83.83;95933.22;5085163;28;20533;-71
2023/03/08 10:26:16;;;;;;;25.27;17.47;;;3.10;95.40;;;2.73;82.91;96011.44;5089586;28;20454;-72
2023/03/08 10:28:45;;;;;;;29.07;18.20;;;3.20;95.30;;;2.79;82.12;95999.91;5080651;28;20453;-73
2023/03/08 10:31:25;;;;;;;26.80;17.90;;;3.20;94.30;;;2.49;83.89;96005.81;5087252;28;20451;-71
2023/03/08 10:34:03;;;;;;;28.90;18.93;;;3.10;95.00;;;2.52;84.50;95997.44;5072375;28;20442;-72
2023/03/08 10:36:30;;;;;;;26.73;17.30;;;3.10;96.20;;;2.66;84.30;95986.69;5075182;28;20493;-70
2023/03/08 10:39:06;;;;;;;25.93;17.87;;;3.10;96.50;;;2.78;83.41;95997.47;5082748;28;20936;-73